This is the latest recevied weather packets stored in our database for station/object IZ1OSY-3. If no packets are shown the sender has not sent any weather packets the latest 10 day(s).
| Time | Temp. | Humidity | Pressure | Rain* | Wind** | Luminosity | Snow |
|---|---|---|---|---|---|---|---|
| 1788644523 | 21.67° C | 66% | 1017.2 hPa | - | - | - | - |
| 1788643026 | 21.67° C | 62% | 1017 hPa | - | - | - | - |
| 1788642121 | 21.67° C | 62% | 1016.9 hPa | - | - | - | - |
| 1788639720 | 21.67° C | 62% | 1016.9 hPa | - | - | - | - |
| 1788639423 | 21.67° C | 61% | 1016.8 hPa | - | - | - | - |
| 1788638519 | 22.22° C | 61% | 1016.8 hPa | - | - | - | - |
| 1788636118 | 22.22° C | 70% | 1016.7 hPa | - | - | - | - |
| 1788635821 | 22.22° C | 71% | 1016.6 hPa | - | - | - | - |
| 1788634916 | 22.78° C | 71% | 1016.5 hPa | - | - | - | - |
| 1788634620 | 22.78° C | 73% | 1016.5 hPa | - | - | - | - |
| 1788633419 | 22.78° C | 74% | 1016.3 hPa | - | - | - | - |
| 1788632218 | 23.33° C | 79% | 1016.1 hPa | - | - | - | - |
| 1788630113 | 23.33° C | 87% | 1015.8 hPa | - | - | - | - |
| 1788629816 | 23.33° C | 87% | 1015.8 hPa | - | - | - | - |
| 1788628912 | 23.89° C | 84% | 1015.7 hPa | - | - | - | - |
| 1788628616 | 23.89° C | 83% | 1015.7 hPa | - | - | - | - |
| 1788625310 | 25° C | 81% | 1015.6 hPa | - | - | - | - |
| 1788620506 | 27.78° C | 68% | 1015.6 hPa | - | - | - | - |
| 1788620210 | 27.78° C | 70% | 1015.7 hPa | - | - | - | - |
| 1788619306 | 26.67° C | 76% | 1015.7 hPa | - | - | - | - |
| 1788619009 | 26.67° C | 78% | 1015.7 hPa | - | - | - | - |
| 1788618105 | 26.11° C | 86% | 1016 hPa | - | - | - | - |
| 1788617808 | 26.11° C | 86% | 1016.1 hPa | - | - | - | - |
| 1788616904 | 26.11° C | 85% | 1016 hPa | - | - | - | - |
| 1788616607 | 26.11° C | 83% | 1016 hPa | - | - | - | - |
* Rain since midnight (hover to see other rain measurements)
** Current wind speed in m/s (hover to see current wind gust speed)